Time,TemperatureF,DewpointF,PressureIn,WindDirection,WindDirectionDegrees,WindSpeedMPH,WindSpeedGustMPH,Humidity,HourlyPrecipIn,Conditions,Clouds,dailyrainin,SoftwareType,DateUTC
2013-10-08 00:01:00,45.6,45.6,26.79,WSW,250,0.0,0.0,100,0.00,,,-99.99,VWS V12.07,2013-10-08 04:01:00,
2013-10-08 00:31:00,44.7,44.7,26.78,WSW,251,0.0,0.0,100,0.00,,,-99.99,VWS V12.07,2013-10-08 04:31:00,
2013-10-08 01:01:00,44.5,44.5,26.79,SW,230,0.0,0.0,100,0.00,,,-99.99,VWS V12.07,2013-10-08 05:01:00,
2013-10-08 01:31:00,43.9,43.9,26.79,SW,230,0.0,0.0,100,0.00,,,-99.99,VWS V12.07,2013-10-08 05:31:00,
2013-10-08 02:01:00,43.6,43.6,26.79,SW,216,0.0,0.0,100,0.00,,,-99.99,VWS V12.07,2013-10-08 06:01:00,
2013-10-08 02:31:00,42.6,42.6,26.79,SW,216,0.0,0.0,100,0.00,,,-99.99,VWS V12.07,2013-10-08 06:31:00,
2013-10-08 03:01:00,42.4,42.4,26.79,SW,233,0.0,0.0,100,0.00,,,-99.99,VWS V12.07,2013-10-08 07:01:00,
2013-10-08 03:31:00,42.0,42.0,26.80,West,278,0.0,0.0,100,0.00,,,-99.99,VWS V12.07,2013-10-08 07:31:00,
2013-10-08 04:01:00,41.3,41.3,26.81,West,260,0.0,0.0,100,0.00,,,-99.99,VWS V12.07,2013-10-08 08:01:00,
2013-10-08 04:31:00,41.2,41.2,26.82,WSW,240,0.0,0.0,100,0.00,,,-99.99,VWS V12.07,2013-10-08 08:31:00,
2013-10-08 05:01:00,40.4,40.4,26.83,WSW,240,0.0,0.0,100,0.00,,,-99.99,VWS V12.07,2013-10-08 09:01:00,
2013-10-08 05:31:00,40.5,40.5,26.84,WSW,241,0.0,0.0,100,0.00,,,-99.99,VWS V12.07,2013-10-08 09:31:00,
2013-10-08 06:01:00,39.0,39.0,26.85,WSW,238,0.0,0.0,100,0.00,,,-99.99,VWS V12.07,2013-10-08 10:01:00,
2013-10-08 06:31:00,38.6,38.6,26.86,WSW,238,0.0,0.0,100,0.00,,,-99.99,VWS V12.07,2013-10-08 10:31:00,
2013-10-08 07:01:00,39.3,39.3,26.87,WSW,238,0.0,0.0,100,0.00,,,-99.99,VWS V12.07,2013-10-08 11:01:00,
2013-10-08 07:31:00,39.6,39.6,26.89,WSW,238,0.0,0.0,100,0.00,,,-99.99,VWS V12.07,2013-10-08 11:31:00,
2013-10-08 08:01:00,44.2,43.7,26.90,NNW,345,0.0,0.0,98,0.00,,,-99.99,VWS V12.07,2013-10-08 12:01:00,
2013-10-08 08:31:00,44.7,43.1,26.91,NNE,17,0.0,0.0,94,0.00,,,-99.99,VWS V12.07,2013-10-08 12:31:00,
2013-10-08 09:01:00,45.9,44.3,26.92,NNE,12,0.0,0.0,94,0.00,,,-99.99,VWS V12.07,2013-10-08 13:01:00,
2013-10-08 09:31:00,47.2,44.1,26.92,North,3,0.0,0.0,89,0.00,,,-99.99,VWS V12.07,2013-10-08 13:31:00,
2013-10-08 10:01:00,47.6,44.2,26.92,North,358,0.0,0.0,88,0.00,,,-99.99,VWS V12.07,2013-10-08 14:01:00,
2013-10-08 10:31:00,50.1,46.1,26.92,NE,40,0.0,0.0,86,0.00,,,-99.99,VWS V12.07,2013-10-08 14:31:00,
2013-10-08 11:01:00,53.0,48.3,26.92,North,5,0.0,0.0,84,0.00,,,-99.99,VWS V12.07,2013-10-08 15:01:00,
2013-10-08 11:31:00,54.7,48.7,26.92,NE,49,0.0,0.0,80,0.00,,,-99.99,VWS V12.07,2013-10-08 15:31:00,
2013-10-08 12:01:00,55.5,49.1,26.90,NE,46,0.0,0.0,79,0.00,,,-99.99,VWS V12.07,2013-10-08 16:01:00,
2013-10-08 12:31:00,56.0,48.5,26.90,ENE,63,0.0,0.0,76,0.00,,,-99.99,VWS V12.07,2013-10-08 16:31:00,
2013-10-08 13:01:00,55.9,48.5,26.89,NE,49,0.0,0.0,76,0.00,,,-99.99,VWS V12.07,2013-10-08 17:01:00,
2013-10-08 13:31:00,56.7,49.6,26.88,ENE,57,0.0,0.0,77,0.00,,,-99.99,VWS V12.07,2013-10-08 17:31:00,
2013-10-08 14:01:00,56.4,50.0,26.88,ENE,63,0.0,0.0,79,0.00,,,-99.99,VWS V12.07,2013-10-08 18:01:00,
2013-10-08 14:31:00,56.8,51.0,26.88,ENE,72,0.0,0.0,81,0.00,,,-99.99,VWS V12.07,2013-10-08 18:31:00,
2013-10-08 15:01:00,57.3,50.2,26.89,ENE,64,0.0,0.0,77,0.00,,,-99.99,VWS V12.07,2013-10-08 19:01:00,
2013-10-08 15:31:00,56.7,50.3,26.89,NE,56,0.0,0.0,79,0.00,,,-99.99,VWS V12.07,2013-10-08 19:31:00,
2013-10-08 16:01:00,56.7,50.9,26.89,ENE,65,0.0,0.0,81,0.00,,,-99.99,VWS V12.07,2013-10-08 20:01:00,
2013-10-08 16:31:00,56.5,51.1,26.90,ENE,61,0.0,0.0,82,0.00,,,-99.99,VWS V12.07,2013-10-08 20:31:00,
2013-10-08 17:01:00,55.6,50.5,26.90,ENE,60,0.0,0.0,83,0.00,,,-99.99,VWS V12.07,2013-10-08 21:01:00,
2013-10-08 17:31:00,53.6,49.8,26.90,ENE,67,0.0,0.0,87,0.00,,,-99.99,VWS V12.07,2013-10-08 21:31:00,
2013-10-08 18:01:00,51.7,48.9,26.91,NE,43,0.0,0.0,90,0.00,,,-99.99,VWS V12.07,2013-10-08 22:01:00,
2013-10-08 18:31:00,49.8,48.2,26.91,NE,43,0.0,0.0,94,0.00,,,-99.99,VWS V12.07,2013-10-08 22:31:00,
2013-10-08 19:01:00,48.3,47.5,26.91,NE,42,0.0,0.0,97,0.00,,,-99.99,VWS V12.07,2013-10-08 23:01:00,
2013-10-08 19:31:00,46.2,46.2,26.92,NE,42,0.0,0.0,100,0.00,,,-99.99,VWS V12.07,2013-10-08 23:31:00,
2013-10-08 20:01:00,45.8,45.8,26.93,NE,42,0.0,0.0,100,0.00,,,-99.99,VWS V12.07,2013-10-09 00:01:00,
2013-10-08 20:31:00,44.7,44.7,26.94,NE,42,0.0,0.0,100,0.00,,,-99.99,VWS V12.07,2013-10-09 00:31:00,
2013-10-08 21:01:00,43.6,43.6,26.95,NE,42,0.0,0.0,100,0.00,,,-99.99,VWS V12.07,2013-10-09 01:01:00,
2013-10-08 21:31:00,43.1,43.1,26.95,NE,43,0.0,0.0,100,0.00,,,-99.99,VWS V12.07,2013-10-09 01:31:00,
2013-10-08 22:01:00,42.3,42.3,26.95,ENE,70,0.0,0.0,100,0.00,,,-99.99,VWS V12.07,2013-10-09 02:01:00,
2013-10-08 22:31:00,43.2,43.2,26.95,NNE,28,0.0,0.0,100,0.00,,,-99.99,VWS V12.07,2013-10-09 02:31:00,
2013-10-08 23:01:00,42.1,42.1,26.94,NNE,23,0.0,0.0,100,0.00,,,-99.99,VWS V12.07,2013-10-09 03:01:00,
2013-10-08 23:31:00,40.3,40.3,26.94,NNE,18,0.0,0.0,100,0.00,,,-99.99,VWS V12.07,2013-10-09 03:31:00,